Time;durP1;ratioP1;P1;durP2;ratioP2;P2;SDS_P1;SDS_P2;PMS_P1;PMS_P2;Temp;Humidity;BMP_temperature;BMP_pressure;BME280_temperature;BME280_humidity;BME280_pressure;Samples;Min_cycle;Max_cycle;Signal;HPM_P1;HPM_P2
2023/11/06 00:00:16;;;;;;;1.23;0.15;;;8.00;99.90;;;;;;5026904;28;20176;-64
2023/11/06 00:02:45;;;;;;;2.10;0.32;;;8.00;99.90;;;;;;5066399;28;20131;-65
2023/11/06 00:05:11;;;;;;;0.38;0.13;;;8.10;99.90;;;;;;5026736;28;20052;-66
2023/11/06 00:07:37;;;;;;;0.32;0.25;;;8.10;99.90;;;;;;5040592;28;20412;-65
2023/11/06 00:10:04;;;;;;;0.82;0.32;;;8.20;99.90;;;;;;5042201;28;20029;-65
2023/11/06 00:12:30;;;;;;;0.40;0.20;;;8.30;99.90;;;;;;5035016;28;20444;-65
2023/11/06 00:14:57;;;;;;;0.85;0.30;;;8.30;99.90;;;;;;5041927;28;20334;-65
2023/11/06 00:17:23;;;;;;;1.00;0.52;;;8.30;99.90;;;;;;5028815;28;20037;-65
2023/11/06 00:19:49;;;;;;;0.17;0.10;;;8.30;99.90;;;;;;5032384;28;20064;-64
2023/11/06 00:22:17;;;;;;;0.85;0.20;;;8.30;99.90;;;;;;5028522;28;20069;-65
2023/11/06 00:24:43;;;;;;;2.28;0.43;;;8.20;99.90;;;;;;5038802;28;20029;-64
2023/11/06 00:27:08;;;;;;;2.58;0.30;;;8.20;99.90;;;;;;5038156;28;20041;-65
2023/11/06 00:29:34;;;;;;;0.20;0.08;;;8.30;99.90;;;;;;5038603;28;20118;-65
2023/11/06 00:32:02;;;;;;;0.15;0.10;;;8.30;99.90;;;;;;5036879;28;20458;-65
2023/11/06 00:34:29;;;;;;;3.65;0.60;;;8.20;99.90;;;;;;5036662;28;20371;-65
2023/11/06 00:36:54;;;;;;;4.78;0.30;;;8.20;99.90;;;;;;5035530;28;20078;-65
2023/11/06 00:39:20;;;;;;;4.38;0.68;;;8.30;99.90;;;;;;5032457;28;20443;-64
2023/11/06 00:41:46;;;;;;;0.40;0.20;;;8.30;99.90;;;;;;5012315;28;20132;-64
2023/11/06 00:44:12;;;;;;;1.92;0.28;;;8.30;99.90;;;;;;5036564;28;20497;-65
2023/11/06 00:46:37;;;;;;;1.25;0.40;;;8.30;99.90;;;;;;5034698;28;20070;-65
2023/11/06 00:49:03;;;;;;;0.30;0.10;;;8.30;99.90;;;;;;5041042;28;20072;-65
2023/11/06 00:51:29;;;;;;;1.65;0.20;;;8.30;99.90;;;;;;5035378;28;20565;-65
2023/11/06 00:53:54;;;;;;;0.40;0.28;;;8.30;99.90;;;;;;5035726;28;20046;-65
2023/11/06 00:56:20;;;;;;;0.73;0.50;;;8.40;99.90;;;;;;5035260;28;20045;-66
2023/11/06 00:58:46;;;;;;;1.85;0.40;;;8.40;99.90;;;;;;5037575;28;20116;-65
2023/11/06 01:01:13;;;;;;;6.88;0.45;;;8.40;99.90;;;;;;5033911;28;20069;-65
2023/11/06 01:03:39;;;;;;;0.50;0.47;;;8.50;99.90;;;;;;5038953;28;20071;-65
2023/11/06 01:06:05;;;;;;;0.63;0.30;;;8.50;99.90;;;;;;5032849;28;20136;-65
2023/11/06 01:08:31;;;;;;;0.98;0.38;;;8.50;99.90;;;;;;5034233;28;20116;-64
2023/11/06 01:10:56;;;;;;;0.30;0.30;;;8.60;99.90;;;;;;5034928;28;20032;-65
2023/11/06 01:13:22;;;;;;;1.23;0.43;;;8.70;99.90;;;;;;5033973;28;20037;-64
2023/11/06 01:15:48;;;;;;;4.00;0.30;;;8.60;99.90;;;;;;5031116;28;20253;-64
2023/11/06 01:18:14;;;;;;;1.38;0.47;;;8.70;99.90;;;;;;5034161;28;20536;-65
2023/11/06 01:20:40;;;;;;;0.93;0.60;;;8.70;99.90;;;;;;5034286;28;20112;-65
2023/11/06 01:23:06;;;;;;;0.75;0.40;;;8.70;99.90;;;;;;5034907;28;20469;-64
2023/11/06 01:25:32;;;;;;;0.63;0.30;;;8.70;99.90;;;;;;5033149;28;20052;-64
2023/11/06 01:27:58;;;;;;;1.08;0.40;;;8.70;99.90;;;;;;5035000;28;20047;-65
2023/11/06 01:30:25;;;;;;;1.15;0.50;;;8.70;99.90;;;;;;5036851;28;20065;-65
2023/11/06 01:32:50;;;;;;;2.20;0.55;;;8.60;99.90;;;;;;5037485;28;20036;-64
2023/11/06 01:35:19;;;;;;;0.20;0.20;;;8.60;99.90;;;;;;5031132;28;20098;-65
2023/11/06 01:37:45;;;;;;;1.00;0.43;;;8.50;99.90;;;;;;5030971;28;20064;-64
2023/11/06 01:40:11;;;;;;;1.00;0.70;;;8.60;99.90;;;;;;5041158;28;20056;-64
2023/11/06 01:42:38;;;;;;;1.13;0.60;;;8.60;99.90;;;;;;5032106;28;20064;-64
2023/11/06 01:45:07;;;;;;;0.40;0.40;;;8.60;99.90;;;;;;5039636;28;20111;-64
2023/11/06 01:47:34;;;;;;;1.15;0.47;;;8.60;99.90;;;;;;5030092;28;20053;-64
2023/11/06 01:50:03;;;;;;;1.13;0.80;;;8.60;99.90;;;;;;5034329;28;20575;-64
2023/11/06 01:52:30;;;;;;;0.98;0.30;;;8.70;99.90;;;;;;5021355;28;20187;-64
2023/11/06 01:54:57;;;;;;;1.17;0.70;;;8.70;99.90;;;;;;5040708;28;20042;-64
2023/11/06 01:57:23;;;;;;;1.85;0.93;;;8.80;99.90;;;;;;5031165;28;20046;-64
2023/11/06 01:59:49;;;;;;;0.73;0.50;;;8.80;99.90;;;;;;5038189;28;20041;-64
2023/11/06 02:02:17;;;;;;;2.20;0.60;;;8.80;99.90;;;;;;5036467;28;20041;-64
2023/11/06 02:04:48;;;;;;;0.52;0.50;;;8.80;99.90;;;;;;5031059;28;20056;-65
2023/11/06 02:07:17;;;;;;;3.63;0.95;;;8.80;99.90;;;;;;5035194;28;20083;-65
2023/11/06 02:09:43;;;;;;;1.35;0.75;;;8.90;99.90;;;;;;5033944;28;20060;-65
2023/11/06 02:12:09;;;;;;;3.40;1.52;;;8.90;99.90;;;;;;5041859;28;20450;-64
2023/11/06 02:14:54;;;;;;;3.72;1.02;;;8.90;99.90;;;;;;5034162;28;20033;-63
2023/11/06 02:17:20;;;;;;;1.15;0.80;;;8.90;99.90;;;;;;5035501;28;20078;-64
2023/11/06 02:19:47;;;;;;;0.93;0.63;;;8.90;99.90;;;;;;5037447;28;20544;-64
2023/11/06 02:22:17;;;;;;;4.18;1.00;;;8.90;99.90;;;;;;5040483;28;20483;-64
2023/11/06 02:24:43;;;;;;;2.05;0.63;;;8.90;99.90;;;;;;5034783;28;20075;-63
2023/11/06 02:27:09;;;;;;;1.73;0.70;;;9.00;99.90;;;;;;5034796;28;20501;-63
2023/11/06 02:29:35;;;;;;;4.50;0.90;;;9.00;99.90;;;;;;5032956;28;20048;-63
2023/11/06 02:32:05;;;;;;;3.88;1.08;;;9.00;99.90;;;;;;5039514;28;20037;-63
2023/11/06 02:34:30;;;;;;;1.77;1.05;;;8.90;99.90;;;;;;5034428;28;20374;-63
2023/11/06 02:36:56;;;;;;;1.20;0.98;;;9.00;99.90;;;;;;5040263;28;20045;-63
2023/11/06 02:39:23;;;;;;;1.27;0.90;;;9.00;99.90;;;;;;5036002;28;20045;-64
2023/11/06 02:41:49;;;;;;;1.23;1.08;;;8.90;99.90;;;;;;5035678;28;20100;-63
2023/11/06 02:44:15;;;;;;;1.95;0.60;;;9.00;99.90;;;;;;5030581;28;20122;-64
2023/11/06 02:46:41;;;;;;;2.28;1.25;;;9.00;99.90;;;;;;5034101;28;20523;-63
2023/11/06 02:49:07;;;;;;;1.08;0.95;;;8.90;99.90;;;;;;5039133;28;20533;-64
2023/11/06 02:51:33;;;;;;;1.48;1.00;;;9.00;99.90;;;;;;5042201;28;20100;-63
2023/11/06 02:54:01;;;;;;;3.00;1.38;;;8.90;99.90;;;;;;5033256;28;20069;-64
2023/11/06 02:56:34;;;;;;;1.08;0.70;;;8.90;99.90;;;;;;5036189;28;20150;-63
2023/11/06 02:59:04;;;;;;;1.90;0.73;;;8.80;99.90;;;;;;5032912;28;20048;-64
2023/11/06 03:01:31;;;;;;;1.23;0.85;;;8.80;99.90;;;;;;5035865;28;20076;-64
2023/11/06 03:03:58;;;;;;;0.70;0.60;;;8.90;99.90;;;;;;5036466;28;20455;-64
2023/11/06 03:06:28;;;;;;;0.88;0.35;;;8.90;99.90;;;;;;5033239;28;20095;-64
2023/11/06 03:08:54;;;;;;;0.32;0.30;;;8.90;99.90;;;;;;5034900;28;20041;-64
2023/11/06 03:11:20;;;;;;;3.42;0.57;;;9.00;99.90;;;;;;5033944;28;20041;-65
2023/11/06 03:13:47;;;;;;;1.08;0.82;;;8.90;99.90;;;;;;5029802;28;20025;-63
2023/11/06 03:16:14;;;;;;;1.27;0.70;;;9.00;99.90;;;;;;5035899;28;20295;-63
2023/11/06 03:18:40;;;;;;;1.25;0.73;;;9.00;99.90;;;;;;5035014;28;20570;-63
2023/11/06 03:21:06;;;;;;;1.27;0.73;;;8.90;99.90;;;;;;5032638;28;20091;-63
2023/11/06 03:23:32;;;;;;;0.90;0.65;;;8.90;99.90;;;;;;5028210;28;20049;-63
2023/11/06 03:25:58;;;;;;;6.78;1.13;;;8.90;99.90;;;;;;5030884;28;20124;-63
2023/11/06 03:28:23;;;;;;;2.28;1.10;;;9.00;99.90;;;;;;5034274;28;20482;-64
2023/11/06 03:30:49;;;;;;;1.45;0.60;;;8.90;99.90;;;;;;5034222;28;20108;-64
2023/11/06 03:33:16;;;;;;;1.38;0.70;;;9.00;99.90;;;;;;5035712;28;20033;-63
2023/11/06 03:35:41;;;;;;;3.60;0.77;;;9.00;99.90;;;;;;5029485;28;20045;-64
2023/11/06 03:38:09;;;;;;;1.25;0.70;;;8.90;99.90;;;;;;5035150;28;20050;-64
2023/11/06 03:40:35;;;;;;;1.23;0.50;;;8.90;99.90;;;;;;5034095;28;20052;-64
2023/11/06 03:43:01;;;;;;;1.05;0.52;;;8.90;99.90;;;;;;5038905;28;20049;-65
2023/11/06 03:45:26;;;;;;;2.28;0.52;;;8.90;99.90;;;;;;5032155;28;20569;-65
2023/11/06 03:47:52;;;;;;;1.25;0.52;;;8.90;99.90;;;;;;5034973;28;20375;-65
2023/11/06 03:50:18;;;;;;;1.13;0.50;;;8.90;99.90;;;;;;5033851;28;20673;-64
2023/11/06 03:52:43;;;;;;;1.13;0.73;;;8.80;99.90;;;;;;5035285;28;20102;-65
2023/11/06 03:55:09;;;;;;;0.88;0.50;;;8.80;99.90;;;;;;5033190;28;20037;-65
2023/11/06 03:57:35;;;;;;;1.88;0.57;;;8.80;99.90;;;;;;5037039;28;20088;-65
2023/11/06 04:00:01;;;;;;;1.83;0.65;;;8.90;99.90;;;;;;5034052;28;20550;-65
2023/11/06 04:02:26;;;;;;;1.23;0.82;;;8.90;99.90;;;;;;5039285;28;20120;-66
2023/11/06 04:04:52;;;;;;;5.40;0.90;;;8.80;99.90;;;;;;5037855;28;20180;-65
2023/11/06 04:07:18;;;;;;;0.85;0.45;;;8.80;99.90;;;;;;5040884;28;20045;-65
2023/11/06 04:09:43;;;;;;;4.22;0.60;;;8.80;99.90;;;;;;5030107;28;20041;-64
2023/11/06 04:12:09;;;;;;;1.75;1.10;;;8.90;99.90;;;;;;5037509;28;20057;-65
2023/11/06 04:14:36;;;;;;;0.68;0.57;;;8.90;99.90;;;;;;5038350;28;20033;-65
2023/11/06 04:17:02;;;;;;;3.47;0.75;;;8.90;99.90;;;;;;5043136;28;20055;-65
2023/11/06 04:19:28;;;;;;;1.08;0.60;;;8.90;99.90;;;;;;5032100;28;20127;-65
2023/11/06 04:21:53;;;;;;;2.28;0.60;;;8.90;99.90;;;;;;5033502;28;20077;-65
2023/11/06 04:24:19;;;;;;;1.60;0.65;;;8.80;99.90;;;;;;5039924;28;20036;-65
2023/11/06 04:26:45;;;;;;;1.02;0.45;;;8.90;99.90;;;;;;5032696;28;20041;-64
2023/11/06 04:29:10;;;;;;;0.93;0.60;;;8.90;99.90;;;;;;5033329;28;20042;-64
2023/11/06 04:31:36;;;;;;;0.95;0.65;;;8.80;99.90;;;;;;5036741;28;20049;-64
2023/11/06 04:34:02;;;;;;;1.35;1.00;;;8.90;99.90;;;;;;5033906;28;20041;-65
2023/11/06 04:36:27;;;;;;;0.90;0.73;;;8.90;99.90;;;;;;5032719;28;20059;-64
2023/11/06 04:38:53;;;;;;;0.80;0.60;;;8.90;99.90;;;;;;5031760;28;20112;-65
2023/11/06 04:41:19;;;;;;;1.33;0.77;;;8.90;99.90;;;;;;5036023;28;20033;-66
2023/11/06 04:43:45;;;;;;;1.80;1.13;;;9.00;99.90;;;;;;5035644;28;20494;-65
2023/11/06 04:46:11;;;;;;;1.77;1.35;;;8.90;99.90;;;;;;5036609;28;20057;-64
2023/11/06 04:48:36;;;;;;;1.80;1.10;;;9.00;99.90;;;;;;5036244;28;20045;-65
2023/11/06 04:51:02;;;;;;;4.65;1.60;;;9.00;99.90;;;;;;5035896;28;20041;-65
2023/11/06 04:53:28;;;;;;;1.63;1.25;;;8.90;99.90;;;;;;5034655;28;20456;-65
2023/11/06 04:55:53;;;;;;;2.55;1.48;;;9.00;99.90;;;;;;5032294;28;20033;-65
2023/11/06 04:58:20;;;;;;;2.85;1.10;;;9.00;99.90;;;;;;5037147;28;20041;-64
2023/11/06 05:00:46;;;;;;;1.23;0.93;;;9.00;99.90;;;;;;5035404;28;20335;-64
2023/11/06 05:03:11;;;;;;;1.58;0.80;;;8.90;99.90;;;;;;5037269;28;20281;-65
2023/11/06 05:05:37;;;;;;;2.72;1.00;;;9.00;99.90;;;;;;5033775;28;20279;-64
2023/11/06 05:08:04;;;;;;;2.10;1.35;;;9.00;99.90;;;;;;5063197;28;20319;-65
2023/11/06 05:10:29;;;;;;;1.10;0.85;;;8.90;99.90;;;;;;5038127;28;20101;-64
2023/11/06 05:12:55;;;;;;;4.95;2.08;;;9.00;99.90;;;;;;5037374;28;20124;-65
2023/11/06 05:15:21;;;;;;;2.92;1.63;;;9.00;99.90;;;;;;5033489;28;20040;-65
2023/11/06 05:17:46;;;;;;;2.92;1.17;;;8.90;99.90;;;;;;5041365;28;20495;-65
2023/11/06 05:20:14;;;;;;;2.22;1.13;;;8.90;99.90;;;;;;5036327;28;20507;-65
2023/11/06 05:22:40;;;;;;;5.80;1.38;;;8.90;99.90;;;;;;5033291;28;20072;-65
2023/11/06 05:25:08;;;;;;;1.35;1.23;;;8.80;99.90;;;;;;5031091;28;20072;-65
2023/11/06 05:27:33;;;;;;;2.83;1.17;;;8.90;99.90;;;;;;5038174;28;20041;-65
2023/11/06 05:30:00;;;;;;;3.42;1.58;;;8.90;99.90;;;;;;5036448;28;20044;-65
2023/11/06 05:32:26;;;;;;;1.40;1.25;;;8.90;99.90;;;;;;5035435;28;20096;-65
2023/11/06 05:34:53;;;;;;;8.07;1.23;;;8.80;99.90;;;;;;5030575;28;20631;-65
2023/11/06 05:37:19;;;;;;;4.95;1.58;;;8.90;99.90;;;;;;5035483;28;20068;-65
2023/11/06 05:39:45;;;;;;;2.85;1.33;;;8.90;99.90;;;;;;5036148;28;20042;-65
2023/11/06 05:42:12;;;;;;;1.63;1.15;;;8.90;99.90;;;;;;5035191;28;20548;-65
2023/11/06 05:44:41;;;;;;;3.97;1.50;;;8.90;99.90;;;;;;5030001;28;20524;-64
2023/11/06 05:47:08;;;;;;;2.92;1.50;;;8.90;99.90;;;;;;5036527;28;20060;-65
2023/11/06 05:49:33;;;;;;;4.10;1.52;;;8.90;99.90;;;;;;5039055;28;20190;-65
2023/11/06 05:51:59;;;;;;;3.38;1.45;;;9.00;99.90;;;;;;5034418;28;20112;-65
2023/11/06 05:54:25;;;;;;;3.45;0.93;;;9.00;99.90;;;;;;5035788;28;20409;-65
2023/11/06 05:56:50;;;;;;;5.13;2.08;;;9.00;99.90;;;;;;5032873;28;20033;-65
2023/11/06 05:59:17;;;;;;;0.93;0.80;;;9.00;99.90;;;;;;5037002;28;20077;-65
2023/11/06 06:01:43;;;;;;;2.08;1.48;;;9.10;99.90;;;;;;5063026;28;20603;-66
2023/11/06 06:04:09;;;;;;;1.60;1.38;;;9.00;99.90;;;;;;5035122;28;20098;-65
2023/11/06 06:06:34;;;;;;;3.90;1.85;;;9.10;99.90;;;;;;5034904;28;20128;-66
2023/11/06 06:09:01;;;;;;;6.25;1.70;;;9.10;99.90;;;;;;5036830;28;20033;-65
2023/11/06 06:11:26;;;;;;;1.60;1.13;;;9.00;99.90;;;;;;5037543;28;20041;-65
2023/11/06 06:13:52;;;;;;;2.13;1.48;;;9.00;99.90;;;;;;5031030;28;20379;-65
2023/11/06 06:16:18;;;;;;;2.10;1.25;;;9.00;99.90;;;;;;5036468;28;20039;-65
2023/11/06 06:18:46;;;;;;;1.55;1.17;;;9.00;99.90;;;;;;5038008;28;20095;-65
2023/11/06 06:21:12;;;;;;;4.20;1.20;;;9.00;99.90;;;;;;5031323;28;20049;-65
2023/11/06 06:23:38;;;;;;;2.28;1.50;;;9.00;99.90;;;;;;5030665;28;20041;-65
2023/11/06 06:26:04;;;;;;;3.67;1.70;;;9.00;99.90;;;;;;5036279;28;20389;-66
2023/11/06 06:28:30;;;;;;;1.10;0.95;;;9.00;99.90;;;;;;5031040;28;20042;-65
2023/11/06 06:30:56;;;;;;;2.63;1.02;;;9.00;99.90;;;;;;5032983;28;20030;-65
2023/11/06 06:33:21;;;;;;;2.92;1.85;;;9.10;99.90;;;;;;5032888;28;20064;-65
2023/11/06 06:35:47;;;;;;;6.40;1.45;;;9.00;99.90;;;;;;5035259;28;20481;-65
2023/11/06 06:38:13;;;;;;;4.00;2.35;;;9.00;99.90;;;;;;5033282;28;20125;-65
2023/11/06 06:40:38;;;;;;;4.20;1.23;;;9.00;99.90;;;;;;5030953;28;20037;-65
2023/11/06 06:43:04;;;;;;;2.03;1.40;;;9.00;99.90;;;;;;5029571;28;20029;-66
2023/11/06 06:45:30;;;;;;;2.35;1.45;;;8.90;99.90;;;;;;5031722;28;20420;-65
2023/11/06 06:47:55;;;;;;;3.08;1.80;;;9.00;99.90;;;;;;5037891;28;20036;-65
2023/11/06 06:50:21;;;;;;;1.40;1.02;;;9.00;99.90;;;;;;5032296;28;20063;-65
2023/11/06 06:52:47;;;;;;;1.50;0.98;;;9.00;99.90;;;;;;5023224;28;20044;-65
2023/11/06 06:55:12;;;;;;;1.02;0.75;;;9.00;99.90;;;;;;5039575;28;20475;-65
2023/11/06 06:57:38;;;;;;;8.57;0.85;;;8.90;99.90;;;;;;5034926;28;20048;-64
2023/11/06 07:00:04;;;;;;;3.40;1.63;;;8.90;99.90;;;;;;5027990;28;20042;-64
2023/11/06 07:02:30;;;;;;;4.22;0.75;;;8.90;99.90;;;;;;5032344;28;20049;-64
2023/11/06 07:04:56;;;;;;;2.05;0.88;;;8.90;99.90;;;;;;5029619;28;20044;-65
2023/11/06 07:07:22;;;;;;;0.50;0.50;;;8.90;99.90;;;;;;5023250;28;20044;-65
2023/11/06 07:09:48;;;;;;;0.70;0.45;;;8.90;99.90;;;;;;5027934;28;20042;-64
2023/11/06 07:12:14;;;;;;;1.25;0.68;;;8.90;99.90;;;;;;5031452;28;20041;-65
2023/11/06 07:14:39;;;;;;;1.40;1.20;;;8.90;99.90;;;;;;5035767;28;20049;-65
2023/11/06 07:17:08;;;;;;;1.48;0.88;;;8.80;99.90;;;;;;5039214;28;20045;-66
2023/11/06 07:19:34;;;;;;;0.90;0.70;;;8.80;99.90;;;;;;5034888;28;20037;-66
2023/11/06 07:22:01;;;;;;;2.15;0.52;;;8.80;99.90;;;;;;5034496;28;20045;-66
2023/11/06 07:24:27;;;;;;;1.33;0.70;;;8.80;99.90;;;;;;5039915;28;20054;-66
2023/11/06 07:26:55;;;;;;;2.63;0.55;;;8.80;99.90;;;;;;5040258;28;20068;-65
2023/11/06 07:29:21;;;;;;;1.65;0.65;;;8.80;99.90;;;;;;5037955;28;20030;-65
2023/11/06 07:31:50;;;;;;;0.85;0.52;;;8.70;99.90;;;;;;5038492;28;20037;-66
2023/11/06 07:34:17;;;;;;;0.38;0.30;;;8.70;99.90;;;;;;5042161;28;20187;-66
2023/11/06 07:36:42;;;;;;;0.50;0.40;;;8.70;99.90;;;;;;5037872;28;20042;-66
2023/11/06 07:39:08;;;;;;;5.93;1.05;;;8.80;99.90;;;;;;5044269;28;20041;-66
2023/11/06 07:41:34;;;;;;;1.20;0.40;;;8.70;99.90;;;;;;5037619;28;20041;-65
2023/11/06 07:43:59;;;;;;;0.47;0.45;;;8.70;99.90;;;;;;5040969;28;20043;-64
2023/11/06 07:46:25;;;;;;;1.10;0.43;;;8.70;99.90;;;;;;5036806;28;20095;-65
2023/11/06 07:48:52;;;;;;;1.55;0.43;;;8.80;99.90;;;;;;5036113;28;20493;-64
2023/11/06 07:51:17;;;;;;;1.42;0.70;;;8.80;99.90;;;;;;5038832;28;20033;-64
2023/11/06 07:53:43;;;;;;;8.90;0.55;;;8.90;99.90;;;;;;5037692;28;20127;-63
2023/11/06 07:56:09;;;;;;;2.25;0.60;;;8.90;99.90;;;;;;5034140;28;20036;-64
2023/11/06 07:58:35;;;;;;;3.13;0.80;;;9.00;99.90;;;;;;5040915;28;20111;-64
2023/11/06 08:01:01;;;;;;;3.38;0.75;;;9.10;99.90;;;;;;5039097;28;20053;-64
2023/11/06 08:03:27;;;;;;;0.63;0.43;;;9.10;99.90;;;;;;5038024;28;20505;-64
2023/11/06 08:05:53;;;;;;;0.30;0.28;;;9.10;99.90;;;;;;5037144;28;20405;-62
2023/11/06 08:08:19;;;;;;;2.00;0.40;;;9.10;99.90;;;;;;5036019;28;20033;-63
2023/11/06 08:10:46;;;;;;;0.50;0.35;;;9.20;99.90;;;;;;5032493;28;20574;-63
2023/11/06 08:13:11;;;;;;;1.77;0.35;;;9.30;99.90;;;;;;5035360;28;20421;-62
2023/11/06 08:15:37;;;;;;;0.63;0.20;;;9.50;99.90;;;;;;5037919;28;20029;-62
2023/11/06 08:18:03;;;;;;;1.42;0.90;;;9.60;99.90;;;;;;5035677;28;20045;-63
2023/11/06 08:20:30;;;;;;;0.55;0.50;;;9.80;99.90;;;;;;5037875;28;20060;-62
2023/11/06 08:22:56;;;;;;;0.88;0.40;;;9.90;99.90;;;;;;5041608;28;20046;-64
2023/11/06 08:25:24;;;;;;;0.20;0.20;;;10.10;99.90;;;;;;5028343;28;20524;-63
2023/11/06 08:27:50;;;;;;;1.70;0.60;;;10.30;99.90;;;;;;5032467;28;20037;-63
2023/11/06 08:30:15;;;;;;;0.73;0.40;;;10.90;99.90;;;;;;5032305;28;20098;-64
2023/11/06 08:32:41;;;;;;;0.60;0.45;;;11.50;99.90;;;;;;5038164;28;20072;-64
2023/11/06 08:35:07;;;;;;;7.18;1.10;;;12.10;99.90;;;;;;5032630;28;20038;-64
2023/11/06 08:37:34;;;;;;;1.45;0.85;;;12.60;99.90;;;;;;5033323;28;20045;-64
2023/11/06 08:39:59;;;;;;;2.88;0.47;;;13.00;99.90;;;;;;5038086;28;20511;-64
2023/11/06 08:42:25;;;;;;;2.30;0.70;;;13.50;99.90;;;;;;5026644;28;20196;-64
2023/11/06 08:44:51;;;;;;;0.82;0.50;;;13.80;99.90;;;;;;5001341;28;20053;-64
2023/11/06 08:47:19;;;;;;;1.58;0.45;;;13.80;99.90;;;;;;5007716;28;20128;-65
2023/11/06 08:49:45;;;;;;;0.50;0.32;;;13.60;99.90;;;;;;5008123;28;20101;-63
2023/11/06 08:52:11;;;;;;;2.33;0.70;;;13.20;99.90;;;;;;5005548;28;20033;-63
2023/11/06 08:54:44;;;;;;;0.20;0.20;;;13.20;99.90;;;;;;4999202;28;20038;-63
2023/11/06 08:57:09;;;;;;;5.63;0.47;;;13.20;99.90;;;;;;5005813;28;20061;-63
2023/11/06 08:59:35;;;;;;;1.40;0.40;;;12.90;99.90;;;;;;5007941;28;20042;-64
2023/11/06 09:02:02;;;;;;;0.80;0.55;;;12.50;99.90;;;;;;5002906;28;20096;-64
2023/11/06 09:04:27;;;;;;;1.08;0.28;;;12.10;99.90;;;;;;5010004;28;20153;-64
2023/11/06 09:06:53;;;;;;;0.38;0.38;;;11.70;99.90;;;;;;5004752;28;20495;-64
2023/11/06 09:09:19;;;;;;;3.53;0.38;;;11.30;99.90;;;;;;5000969;28;20069;-63
2023/11/06 09:11:44;;;;;;;3.53;0.50;;;11.00;99.90;;;;;;5005967;28;20128;-63
2023/11/06 09:14:10;;;;;;;3.22;0.30;;;10.80;99.90;;;;;;5006144;28;20502;-63
2023/11/06 09:16:38;;;;;;;0.22;0.20;;;10.60;99.90;;;;;;4999426;28;20798;-64
2023/11/06 09:19:05;;;;;;;3.28;0.47;;;10.50;99.90;;;;;;5007227;28;20034;-63
2023/11/06 09:21:32;;;;;;;0.73;0.28;;;10.50;99.90;;;;;;5035225;28;20444;-63
2023/11/06 09:23:58;;;;;;;0.70;0.35;;;10.50;99.90;;;;;;4998444;28;20034;-63
2023/11/06 09:26:24;;;;;;;0.93;0.25;;;10.90;99.90;;;;;;5006071;28;20037;-63
2023/11/06 09:28:50;;;;;;;0.52;0.45;;;11.30;99.90;;;;;;5005776;28;20494;-63
2023/11/06 09:31:20;;;;;;;4.35;0.35;;;11.70;99.90;;;;;;4999751;28;20351;-63
2023/11/06 09:33:55;;;;;;;0.32;0.22;;;11.70;99.90;;;;;;4999689;28;20048;-63
2023/11/06 09:36:21;;;;;;;0.32;0.10;;;11.60;99.90;;;;;;4997545;28;20125;-64
2023/11/06 09:38:47;;;;;;;0.10;0.08;;;11.50;99.90;;;;;;5000203;28;20120;-64
2023/11/06 09:41:13;;;;;;;0.82;0.22;;;11.40;99.90;;;;;;5005128;28;20046;-64
2023/11/06 09:43:42;;;;;;;0.98;0.25;;;11.30;99.90;;;;;;4996688;28;20043;-64
2023/11/06 09:46:09;;;;;;;2.10;0.10;;;11.30;99.90;;;;;;5001853;28;20140;-64
2023/11/06 09:48:36;;;;;;;0.22;0.10;;;11.30;99.90;;;;;;5001597;28;20053;-64
2023/11/06 09:51:12;;;;;;;1.35;0.22;;;11.50;99.90;;;;;;5004347;28;20138;-64
2023/11/06 09:53:44;;;;;;;0.13;0.10;;;11.60;99.90;;;;;;5000675;28;20486;-67
2023/11/06 09:56:10;;;;;;;0.52;0.20;;;11.60;99.90;;;;;;5002499;28;20117;-67
2023/11/06 09:58:40;;;;;;;0.08;0.00;;;11.50;99.90;;;;;;5015703;28;20072;-65
2023/11/06 10:01:12;;;;;;;5.30;0.68;;;11.40;99.90;;;;;;4997052;28;20675;-66
2023/11/06 10:03:42;;;;;;;0.50;0.28;;;11.40;99.90;;;;;;5003004;28;20045;-64
2023/11/06 10:06:08;;;;;;;0.85;0.20;;;11.30;99.90;;;;;;5005466;28;20046;-64
2023/11/06 10:08:37;;;;;;;0.00;0.00;;;11.20;99.90;;;;;;5001939;28;20053;-63
2023/11/06 10:11:05;;;;;;;0.95;0.20;;;11.20;99.90;;;;;;5004276;28;20046;-63
2023/11/06 10:13:31;;;;;;;0.32;0.10;;;11.00;99.90;;;;;;5001153;28;20117;-65
2023/11/06 10:16:15;;;;;;;0.10;0.05;;;11.00;99.90;;;;;;5002334;28;20030;-63
2023/11/06 10:18:41;;;;;;;0.55;0.10;;;11.10;99.90;;;;;;5001453;28;20042;-64
2023/11/06 10:21:07;;;;;;;0.15;0.15;;;11.10;99.90;;;;;;5003037;28;20041;-64
2023/11/06 10:23:36;;;;;;;2.35;0.20;;;11.10;99.90;;;;;;4999277;28;20057;-63
2023/11/06 10:26:12;;;;;;;0.63;0.20;;;11.20;99.90;;;;;;5006835;28;20061;-63
2023/11/06 10:28:38;;;;;;;1.33;0.22;;;11.30;99.90;;;;;;5006136;28;20042;-63
2023/11/06 10:31:04;;;;;;;0.45;0.10;;;11.40;99.90;;;;;;5003422;28;20485;-65
2023/11/06 10:33:30;;;;;;;0.65;0.30;;;11.50;99.90;;;;;;5002518;28;20402;-64
2023/11/06 10:35:57;;;;;;;0.52;0.47;;;11.60;99.90;;;;;;5001242;28;20042;-65
2023/11/06 10:38:31;;;;;;;0.28;0.20;;;11.60;99.90;;;;;;5035899;28;20540;-65
2023/11/06 10:40:58;;;;;;;1.80;0.22;;;11.60;99.90;;;;;;5003029;28;20045;-65
2023/11/06 10:43:24;;;;;;;1.05;0.17;;;11.60;99.90;;;;;;5004310;28;20053;-66
2023/11/06 10:45:51;;;;;;;5.05;0.60;;;11.60;99.90;;;;;;5003645;28;20039;-65
2023/11/06 10:48:37;;;;;;;0.70;0.30;;;11.50;99.90;;;;;;5000612;28;20116;-65
2023/11/06 10:51:04;;;;;;;0.80;0.10;;;11.40;99.90;;;;;;5007333;28;20729;-66
2023/11/06 10:53:34;;;;;;;0.88;0.25;;;11.20;99.90;;;;;;5018835;28;20446;-65
2023/11/06 10:56:05;;;;;;;1.25;0.20;;;11.20;99.90;;;;;;5005224;28;20037;-65
2023/11/06 10:58:33;;;;;;;0.43;0.30;;;11.10;99.90;;;;;;5002784;28;20081;-65
2023/11/06 11:00:59;;;;;;;4.68;0.68;;;11.10;99.90;;;;;;5035743;28;20552;-65
2023/11/06 11:03:28;;;;;;;0.30;0.30;;;11.00;99.90;;;;;;5003251;28;20066;-65
2023/11/06 11:05:55;;;;;;;0.70;0.00;;;10.90;99.90;;;;;;5039977;28;20050;-64
2023/11/06 11:08:24;;;;;;;3.22;0.45;;;10.90;99.90;;;;;;5001825;28;20037;-64
2023/11/06 11:10:52;;;;;;;1.33;0.75;;;10.80;99.90;;;;;;5003658;28;20575;-64
2023/11/06 11:13:18;;;;;;;0.70;0.43;;;10.70;99.90;;;;;;5006093;28;20026;-65
2023/11/06 11:15:44;;;;;;;0.68;0.20;;;10.70;99.90;;;;;;4997853;28;20038;-64
2023/11/06 11:18:10;;;;;;;1.38;0.40;;;10.60;99.90;;;;;;5000159;28;20112;-65
2023/11/06 11:20:57;;;;;;;1.15;0.20;;;10.60;99.90;;;;;;5000673;28;20046;-65
2023/11/06 11:23:42;;;;;;;2.10;0.38;;;10.60;99.90;;;;;;5002450;28;20064;-65
2023/11/06 11:26:09;;;;;;;1.17;0.60;;;10.60;99.90;;;;;;4999822;28;20038;-64
2023/11/06 11:29:09;;;;;;;0.65;0.32;;;10.60;99.90;;;;;;5003099;28;20908;-64
2023/11/06 11:31:47;;;;;;;0.20;0.10;;;10.60;99.90;;;;;;4993002;28;20518;-64
2023/11/06 11:34:26;;;;;;;2.25;0.47;;;10.60;99.90;;;;;;5000910;28;20033;-65
2023/11/06 11:36:53;;;;;;;1.58;0.35;;;10.70;99.90;;;;;;4998448;28;20133;-65
2023/11/06 11:39:22;;;;;;;0.32;0.20;;;10.70;99.90;;;;;;5008223;28;20073;-64
2023/11/06 11:42:12;;;;;;;0.10;0.05;;;10.70;99.90;;;;;;5004481;28;20142;-65
2023/11/06 11:44:52;;;;;;;1.30;0.43;;;10.70;99.90;;;;;;5004974;28;20042;-64
2023/11/06 11:47:18;;;;;;;0.80;0.38;;;10.70;99.90;;;;;;5001824;28;20083;-65
2023/11/06 11:49:48;;;;;;;2.05;0.68;;;10.70;99.90;;;;;;5008196;28;20086;-64
2023/11/06 11:52:23;;;;;;;1.05;0.10;;;10.70;99.90;;;;;;5004262;28;20069;-65
2023/11/06 11:54:50;;;;;;;2.33;0.68;;;10.70;99.90;;;;;;5001702;28;20411;-64
2023/11/06 11:57:16;;;;;;;3.28;0.30;;;10.70;99.90;;;;;;5007142;28;20049;-65
2023/11/06 11:59:52;;;;;;;2.05;0.55;;;10.70;99.90;;;;;;5004969;28;20046;-64
2023/11/06 12:02:26;;;;;;;0.90;0.20;;;10.70;99.90;;;;;;5006403;28;20560;-65
2023/11/06 12:04:55;;;;;;;0.20;0.20;;;10.70;99.90;;;;;;5004641;28;20037;-64
2023/11/06 12:07:22;;;;;;;0.35;0.20;;;10.70;99.90;;;;;;5005399;28;20266;-64
2023/11/06 12:09:51;;;;;;;5.38;0.57;;;10.70;99.90;;;;;;5008300;28;20025;-65
2023/11/06 12:12:28;;;;;;;0.13;0.05;;;10.60;99.90;;;;;;5003654;28;20044;-64
2023/11/06 12:14:56;;;;;;;0.32;0.15;;;10.60;99.90;;;;;;5006025;28;20078;-64
2023/11/06 12:17:33;;;;;;;0.90;0.40;;;10.50;99.90;;;;;;5010421;28;20037;-63
2023/11/06 12:20:00;;;;;;;4.20;0.17;;;10.50;99.90;;;;;;5037827;28;20037;-64
2023/11/06 12:22:28;;;;;;;1.02;0.30;;;10.50;99.90;;;;;;5007086;28;20042;-63
2023/11/06 12:24:55;;;;;;;0.75;0.47;;;10.50;99.90;;;;;;5005357;28;20042;-63
2023/11/06 12:27:31;;;;;;;1.55;0.30;;;10.40;99.90;;;;;;5007245;28;20133;-63
2023/11/06 12:30:06;;;;;;;1.33;0.38;;;10.40;99.90;;;;;;5008920;28;20092;-64
2023/11/06 12:32:34;;;;;;;0.10;0.10;;;10.30;99.90;;;;;;5033666;28;20073;-64
2023/11/06 12:35:11;;;;;;;2.05;0.30;;;10.20;99.90;;;;;;5008991;28;20048;-64
2023/11/06 12:37:50;;;;;;;1.17;0.80;;;10.20;99.90;;;;;;5010748;28;20046;-64
2023/11/06 12:40:17;;;;;;;7.80;0.55;;;10.10;99.90;;;;;;5007018;28;20093;-64
2023/11/06 12:42:46;;;;;;;0.63;0.13;;;10.00;99.90;;;;;;5004967;28;20042;-63
2023/11/06 12:45:31;;;;;;;0.38;0.20;;;10.00;99.90;;;;;;5004058;28;20025;-63
2023/11/06 12:48:20;;;;;;;0.20;0.10;;;10.00;99.90;;;;;;5008060;28;20048;-64
2023/11/06 12:50:54;;;;;;;0.93;0.22;;;9.90;99.90;;;;;;5037767;28;20073;-63
2023/11/06 12:53:20;;;;;;;1.23;0.25;;;9.80;99.90;;;;;;5009351;28;20330;-63